createdAt,value
2023-03-07T00:00:46.784Z,17.20
2023-03-07T00:03:15.602Z,26.77
2023-03-07T00:05:45.737Z,18.00
2023-03-07T00:08:12.417Z,17.20
2023-03-07T00:10:39.279Z,16.73
2023-03-07T00:13:05.950Z,17.63
2023-03-07T00:15:32.652Z,16.53
2023-03-07T00:17:59.273Z,17.20
2023-03-07T00:20:25.922Z,16.60
2023-03-07T00:22:52.585Z,17.93
2023-03-07T00:25:19.384Z,17.13
2023-03-07T00:27:46.036Z,16.07
2023-03-07T00:30:12.807Z,18.70
2023-03-07T00:32:39.542Z,17.23
2023-03-07T00:35:07.227Z,17.93
2023-03-07T00:37:33.873Z,16.33
2023-03-07T00:40:00.516Z,18.20
2023-03-07T00:42:27.156Z,18.83
2023-03-07T00:44:53.783Z,17.03
2023-03-07T00:47:20.412Z,17.43
2023-03-07T00:49:48.299Z,16.97
2023-03-07T00:52:14.980Z,20.40
2023-03-07T00:54:41.589Z,17.47
2023-03-07T00:57:08.228Z,16.53
2023-03-07T00:59:34.906Z,17.33
2023-03-07T01:02:01.590Z,15.10
2023-03-07T01:04:28.324Z,17.27
2023-03-07T01:06:54.939Z,15.47
2023-03-07T01:09:21.580Z,18.13
2023-03-07T01:11:49.662Z,17.37
2023-03-07T01:14:16.319Z,14.13
2023-03-07T01:16:43.362Z,19.33
2023-03-07T01:19:12.620Z,18.20
2023-03-07T01:21:42.107Z,12.63
2023-03-07T01:24:13.600Z,15.93
2023-03-07T01:26:40.553Z,16.40
2023-03-07T01:29:08.133Z,18.73
2023-03-07T01:31:37.781Z,16.37
2023-03-07T01:34:04.976Z,13.97
2023-03-07T01:36:33.935Z,17.37
2023-03-07T01:39:06.291Z,15.30
2023-03-07T01:41:37.692Z,14.73
2023-03-07T01:44:14.479Z,13.67
2023-03-07T01:46:48.704Z,14.97
2023-03-07T01:49:38.426Z,13.77
2023-03-07T01:52:12.733Z,14.17
2023-03-07T01:54:48.625Z,14.70
2023-03-07T01:57:18.423Z,15.70
2023-03-07T01:59:49.255Z,15.23
2023-03-07T02:02:19.603Z,14.30
2023-03-07T02:05:10.568Z,13.37
2023-03-07T02:07:49.749Z,14.07
2023-03-07T02:10:18.848Z,15.23
2023-03-07T02:12:45.576Z,15.10
2023-03-07T02:15:13.615Z,16.03
2023-03-07T02:17:41.952Z,16.03
2023-03-07T02:20:26.673Z,15.00
2023-03-07T02:22:54.641Z,15.47
2023-03-07T02:25:46.790Z,13.77
2023-03-07T02:28:16.968Z,14.67
2023-03-07T02:30:59.870Z,15.73
2023-03-07T02:33:26.564Z,15.60
2023-03-07T02:36:01.796Z,13.87
2023-03-07T02:38:32.238Z,15.03
2023-03-07T02:40:58.969Z,16.30
2023-03-07T02:43:25.810Z,16.37
2023-03-07T02:45:52.469Z,16.33
2023-03-07T02:48:19.136Z,13.43
2023-03-07T02:50:47.341Z,16.73
2023-03-07T02:53:13.968Z,14.67
2023-03-07T02:55:40.632Z,13.70
2023-03-07T02:58:07.394Z,14.03
2023-03-07T03:00:34.388Z,15.77
2023-03-07T03:03:01.179Z,16.43
2023-03-07T03:05:27.830Z,19.47
2023-03-07T03:07:54.600Z,17.33
2023-03-07T03:10:21.248Z,16.40
2023-03-07T03:12:47.924Z,15.90
2023-03-07T03:15:14.577Z,19.47
2023-03-07T03:17:44.325Z,19.23
2023-03-07T03:20:12.775Z,15.97
2023-03-07T03:22:40.642Z,18.13
2023-03-07T03:25:09.938Z,15.57
2023-03-07T03:27:37.780Z,18.83
2023-03-07T03:30:06.323Z,19.50
2023-03-07T03:32:33.353Z,17.63
2023-03-07T03:35:00.234Z,18.53
2023-03-07T03:37:27.149Z,16.77
2023-03-07T03:39:54.394Z,15.73
2023-03-07T03:42:21.116Z,15.07
2023-03-07T03:44:47.795Z,17.80
2023-03-07T03:47:14.402Z,17.30
2023-03-07T03:49:41.134Z,19.47
2023-03-07T03:52:07.776Z,20.10
2023-03-07T03:54:34.440Z,18.47
2023-03-07T03:57:01.350Z,18.33
2023-03-07T03:59:28.093Z,17.53
2023-03-07T04:01:55.245Z,20.63
2023-03-07T04:04:22.615Z,16.80
2023-03-07T04:06:49.340Z,21.83
2023-03-07T04:09:16.066Z,17.40
2023-03-07T04:11:42.680Z,17.70
2023-03-07T04:14:09.343Z,16.87
2023-03-07T04:16:36.117Z,18.23
2023-03-07T04:19:02.748Z,18.93
2023-03-07T04:21:29.369Z,16.50
2023-03-07T04:23:58.251Z,20.83
2023-03-07T04:26:40.682Z,14.37
2023-03-07T04:29:07.297Z,16.93
2023-03-07T04:31:33.971Z,17.97
2023-03-07T04:34:00.717Z,14.73
2023-03-07T04:36:27.403Z,16.77
2023-03-07T04:38:53.983Z,16.37
2023-03-07T04:41:23.556Z,13.60
2023-03-07T04:43:50.226Z,16.60
2023-03-07T04:46:18.229Z,17.67
2023-03-07T04:48:46.276Z,19.03
2023-03-07T04:51:13.606Z,15.63
2023-03-07T04:53:40.248Z,14.87
2023-03-07T04:56:08.323Z,14.83
2023-03-07T04:58:35.921Z,17.00
2023-03-07T05:01:04.133Z,13.23
2023-03-07T05:03:31.690Z,17.57
2023-03-07T05:06:02.814Z,17.60
2023-03-07T05:08:29.713Z,14.87
2023-03-07T05:10:57.862Z,19.50
2023-03-07T05:13:24.517Z,16.77
2023-03-07T05:15:57.255Z,16.47
2023-03-07T05:18:24.601Z,15.80
2023-03-07T05:20:51.635Z,15.03
2023-03-07T05:23:19.238Z,17.33
2023-03-07T05:25:49.890Z,19.70
2023-03-07T05:28:17.845Z,14.70
2023-03-07T05:30:46.081Z,14.93
2023-03-07T05:33:13.016Z,15.03
2023-03-07T05:35:39.888Z,17.97
2023-03-07T05:38:07.074Z,16.93
2023-03-07T05:40:33.877Z,14.87
2023-03-07T05:43:00.531Z,17.70
2023-03-07T05:45:27.188Z,13.10
2023-03-07T05:47:53.811Z,12.03
2023-03-07T05:50:20.998Z,9.33
2023-03-07T05:52:48.156Z,12.60
2023-03-07T05:55:14.892Z,15.47
2023-03-07T05:57:41.519Z,15.33
2023-03-07T06:00:08.868Z,9.60
2023-03-07T06:02:35.544Z,12.90
2023-03-07T06:05:02.162Z,15.40
2023-03-07T06:07:28.800Z,13.90
2023-03-07T06:09:55.446Z,16.93
2023-03-07T06:12:22.115Z,14.07
2023-03-07T06:14:48.714Z,16.20
2023-03-07T06:17:15.471Z,15.90
2023-03-07T06:19:42.534Z,16.63
2023-03-07T06:22:09.212Z,14.70
2023-03-07T06:24:35.878Z,18.97
2023-03-07T06:27:02.716Z,14.73
2023-03-07T06:29:29.424Z,16.63
2023-03-07T06:31:56.129Z,14.73
2023-03-07T06:34:23.602Z,15.47
2023-03-07T06:36:50.191Z,15.73
2023-03-07T06:39:21.222Z,15.53
2023-03-07T06:41:48.928Z,13.17
2023-03-07T06:44:16.892Z,14.27
2023-03-07T06:46:44.631Z,16.73
2023-03-07T06:49:11.840Z,13.87
2023-03-07T06:51:38.646Z,15.00
2023-03-07T06:54:05.347Z,18.17
2023-03-07T06:56:34.249Z,14.47
2023-03-07T06:59:01.041Z,12.80
2023-03-07T07:01:27.747Z,17.40
2023-03-07T07:03:54.337Z,15.37
2023-03-07T07:06:21.147Z,14.70
2023-03-07T07:08:47.801Z,15.90
2023-03-07T07:11:14.455Z,15.97
2023-03-07T07:13:41.090Z,19.67
2023-03-07T07:16:09.159Z,15.67
2023-03-07T07:18:35.957Z,12.77
2023-03-07T07:21:03.916Z,14.67
2023-03-07T07:23:30.680Z,16.77
2023-03-07T07:25:57.285Z,15.00
2023-03-07T07:28:24.009Z,13.80
2023-03-07T07:30:51.027Z,15.73
2023-03-07T07:33:17.766Z,13.63
2023-03-07T07:35:45.053Z,15.63
2023-03-07T07:38:12.767Z,13.73
2023-03-07T07:40:39.921Z,15.30
2023-03-07T07:43:06.619Z,10.40
2023-03-07T07:45:33.278Z,14.47
2023-03-07T07:47:59.878Z,14.57
2023-03-07T07:50:26.567Z,16.30
2023-03-07T07:52:54.234Z,13.13
2023-03-07T07:55:21.359Z,11.57
2023-03-07T07:57:47.980Z,13.23
2023-03-07T08:00:19.378Z,15.83
2023-03-07T08:02:46.468Z,13.73
2023-03-07T08:05:13.174Z,14.33
2023-03-07T08:07:39.865Z,11.90
2023-03-07T08:10:07.252Z,13.67
2023-03-07T08:12:33.892Z,15.20
2023-03-07T08:15:00.568Z,14.53
2023-03-07T08:17:29.553Z,13.00
2023-03-07T08:20:01.653Z,12.87
2023-03-07T08:22:28.609Z,14.07
2023-03-07T08:24:55.271Z,13.90
2023-03-07T08:27:21.968Z,11.27
2023-03-07T08:29:49.526Z,13.20
2023-03-07T08:32:16.360Z,12.57
2023-03-07T08:34:43.014Z,15.63
2023-03-07T08:37:10.341Z,12.90
2023-03-07T08:39:37.013Z,12.90
2023-03-07T08:42:03.782Z,12.97
2023-03-07T08:44:30.461Z,12.67
2023-03-07T08:46:57.099Z,16.03
2023-03-07T08:49:23.742Z,10.87
2023-03-07T08:51:50.451Z,9.60
2023-03-07T08:54:17.138Z,16.37
2023-03-07T08:56:43.801Z,8.93
2023-03-07T08:59:10.458Z,10.50
2023-03-07T09:01:37.049Z,10.63
2023-03-07T09:04:04.959Z,11.40
2023-03-07T09:06:31.651Z,12.17
2023-03-07T09:08:58.254Z,10.73
2023-03-07T09:11:26.494Z,9.87
2023-03-07T09:13:56.304Z,9.60
2023-03-07T09:16:23.512Z,10.37
2023-03-07T09:18:50.630Z,10.27
2023-03-07T09:21:17.472Z,12.50
2023-03-07T09:23:44.123Z,10.27
2023-03-07T09:26:10.829Z,9.20
2023-03-07T09:28:37.451Z,14.23
2023-03-07T09:31:11.990Z,9.03
2023-03-07T09:33:39.591Z,11.30
2023-03-07T09:36:07.903Z,10.53
2023-03-07T09:38:35.324Z,12.33
2023-03-07T09:41:15.600Z,7.93
2023-03-07T09:43:57.840Z,9.57
2023-03-07T09:46:53.134Z,11.03
2023-03-07T09:49:29.534Z,10.67
2023-03-07T09:51:59.238Z,11.37
2023-03-07T09:54:34.778Z,9.47
2023-03-07T09:57:04.033Z,10.30
2023-03-07T09:59:39.311Z,10.57
2023-03-07T10:02:24.871Z,8.60
2023-03-07T10:04:57.839Z,11.33
2023-03-07T10:07:26.797Z,8.50
2023-03-07T10:10:02.237Z,9.87
2023-03-07T10:12:50.370Z,10.70
2023-03-07T10:15:45.794Z,10.43
2023-03-07T10:18:15.655Z,8.47
2023-03-07T10:21:00.402Z,8.73
2023-03-07T10:24:04.802Z,9.17
2023-03-07T10:26:40.664Z,11.20
2023-03-07T10:29:17.292Z,9.57
2023-03-07T10:31:48.700Z,7.20
2023-03-07T10:34:28.767Z,8.23
2023-03-07T10:37:16.012Z,9.73
2023-03-07T10:39:51.129Z,9.97
2023-03-07T10:42:22.776Z,9.73
2023-03-07T10:44:51.152Z,10.53
2023-03-07T10:47:23.306Z,9.83
2023-03-07T10:49:54.463Z,9.67
2023-03-07T10:52:27.099Z,7.87
2023-03-07T10:54:55.055Z,7.23
2023-03-07T10:57:27.746Z,10.03
2023-03-07T10:59:54.370Z,7.27
2023-03-07T11:02:41.740Z,9.23
2023-03-07T11:05:31.233Z,10.37
2023-03-07T11:07:59.344Z,8.57
2023-03-07T11:10:36.046Z,9.40
2023-03-07T11:13:19.581Z,6.77
2023-03-07T11:15:46.497Z,13.27
2023-03-07T11:18:36.931Z,8.13
2023-03-07T11:21:03.757Z,7.53
2023-03-07T11:23:31.569Z,7.70
2023-03-07T11:26:16.326Z,8.03
2023-03-07T11:28:43.467Z,6.07
2023-03-07T11:31:21.880Z,6.63
2023-03-07T11:34:24.856Z,9.57
2023-03-07T11:37:27.933Z,6.40
2023-03-07T11:40:13.141Z,8.07
2023-03-07T11:42:50.301Z,6.17
2023-03-07T11:45:35.183Z,5.03
2023-03-07T11:48:24.118Z,5.10
2023-03-07T11:50:57.498Z,4.60
2023-03-07T11:53:51.589Z,10.03
2023-03-07T11:56:28.917Z,8.17
2023-03-07T11:59:14.036Z,6.07
2023-03-07T12:01:58.532Z,6.87
2023-03-07T12:04:37.210Z,6.27
2023-03-07T12:07:38.182Z,6.43
2023-03-07T12:10:04.719Z,7.00
2023-03-07T12:12:56.569Z,7.70
2023-03-07T12:15:41.117Z,6.07
2023-03-07T12:18:32.522Z,7.77
2023-03-07T12:21:07.940Z,6.33
2023-03-07T12:23:42.341Z,5.90
2023-03-07T12:26:48.600Z,8.47
2023-03-07T12:29:32.477Z,6.07
2023-03-07T12:32:04.239Z,9.13
2023-03-07T12:34:43.763Z,7.67
2023-03-07T12:37:16.258Z,5.47
2023-03-07T12:39:53.512Z,4.73
2023-03-07T12:42:48.954Z,6.47
2023-03-07T12:45:26.196Z,11.40
2023-03-07T12:47:53.765Z,7.80
2023-03-07T12:50:26.531Z,6.87
2023-03-07T12:53:05.978Z,7.87
2023-03-07T12:55:49.592Z,5.20
2023-03-07T12:58:44.271Z,5.83
2023-03-07T13:01:39.974Z,5.10
2023-03-07T13:04:14.550Z,6.87
2023-03-07T13:06:42.573Z,7.73
2023-03-07T13:09:25.999Z,6.57
2023-03-07T13:12:16.777Z,7.37
2023-03-07T13:14:48.341Z,5.97
2023-03-07T13:17:34.939Z,9.47
2023-03-07T13:20:14.698Z,5.57
2023-03-07T13:22:41.314Z,6.13
2023-03-07T13:25:20.171Z,6.67
2023-03-07T13:28:04.239Z,6.50
2023-03-07T13:30:31.436Z,7.40
2023-03-07T13:33:00.479Z,7.53
2023-03-07T13:35:38.633Z,5.60
2023-03-07T13:38:13.129Z,6.60
2023-03-07T13:40:48.328Z,6.27
2023-03-07T13:43:27.232Z,5.57
2023-03-07T13:46:05.753Z,5.97
2023-03-07T13:48:32.425Z,4.90
2023-03-07T13:50:59.039Z,9.67
2023-03-07T13:53:31.096Z,7.40
2023-03-07T13:56:17.784Z,4.63
2023-03-07T13:58:53.254Z,4.47
2023-03-07T14:01:23.456Z,8.60
2023-03-07T14:03:52.611Z,4.97
2023-03-07T14:06:37.673Z,6.73
2023-03-07T14:09:06.296Z,4.87
2023-03-07T14:11:47.259Z,9.63
2023-03-07T14:14:41.951Z,6.13
2023-03-07T14:17:27.390Z,4.50
2023-03-07T14:20:11.186Z,6.23
2023-03-07T14:22:51.983Z,5.53
2023-03-07T14:25:30.329Z,7.30
2023-03-07T14:28:17.819Z,5.67
2023-03-07T14:30:58.577Z,7.47
2023-03-07T14:33:34.589Z,3.97
2023-03-07T14:36:02.357Z,4.80
2023-03-07T14:38:29.162Z,6.07
2023-03-07T14:41:36.073Z,9.17
2023-03-07T14:44:09.161Z,5.27
2023-03-07T14:47:10.710Z,6.43
2023-03-07T14:50:03.316Z,4.70
2023-03-07T14:52:31.815Z,7.40
2023-03-07T14:55:01.795Z,13.80
2023-03-07T14:57:41.052Z,6.60
2023-03-07T15:00:20.394Z,7.10
2023-03-07T15:03:07.825Z,9.57
2023-03-07T15:05:47.100Z,6.70
2023-03-07T15:08:24.253Z,6.90
2023-03-07T15:11:00.506Z,8.10
2023-03-07T15:13:38.022Z,5.93
2023-03-07T15:16:10.659Z,6.70
2023-03-07T15:18:43.583Z,6.40
2023-03-07T15:21:18.957Z,6.80
2023-03-07T15:23:53.771Z,8.00
2023-03-07T15:26:24.245Z,5.87
2023-03-07T15:28:59.766Z,6.63
2023-03-07T15:31:30.048Z,8.03
2023-03-07T15:34:11.002Z,5.30
2023-03-07T15:36:40.497Z,6.50
2023-03-07T15:39:28.885Z,6.37
2023-03-07T15:42:06.044Z,6.70
2023-03-07T15:44:36.491Z,6.60
2023-03-07T15:47:15.167Z,5.53
2023-03-07T15:49:48.082Z,6.97
2023-03-07T15:52:41.696Z,7.17
2023-03-07T15:55:18.852Z,4.33
2023-03-07T15:58:01.383Z,6.83
2023-03-07T16:00:34.337Z,5.13
2023-03-07T16:03:25.069Z,7.00
2023-03-07T16:05:52.220Z,8.70
2023-03-07T16:08:22.243Z,5.93
2023-03-07T16:11:09.196Z,7.67
2023-03-07T16:13:40.673Z,6.17
2023-03-07T16:16:22.038Z,6.00
2023-03-07T16:18:49.536Z,8.30
2023-03-07T16:21:18.135Z,7.87
2023-03-07T16:23:45.621Z,6.33
2023-03-07T16:26:31.490Z,7.60
2023-03-07T16:29:00.348Z,5.30
2023-03-07T16:31:27.154Z,7.70
2023-03-07T16:33:54.795Z,5.10
2023-03-07T16:36:21.577Z,6.03
2023-03-07T16:38:48.177Z,4.93
2023-03-07T16:41:20.283Z,7.33
2023-03-07T16:43:55.160Z,6.50
2023-03-07T16:46:23.244Z,8.30
2023-03-07T16:48:50.005Z,6.10
2023-03-07T16:51:19.160Z,6.93
2023-03-07T16:53:47.385Z,6.80
2023-03-07T16:56:30.079Z,6.63
2023-03-07T16:58:57.865Z,6.03
2023-03-07T17:01:24.598Z,11.23
2023-03-07T17:03:51.377Z,6.30
2023-03-07T17:06:19.129Z,6.30
2023-03-07T17:08:46.997Z,6.00
2023-03-07T17:11:26.067Z,10.27
2023-03-07T17:13:55.534Z,8.73
2023-03-07T17:16:22.224Z,8.87
2023-03-07T17:18:49.454Z,5.97
2023-03-07T17:21:19.001Z,7.87
2023-03-07T17:23:46.560Z,8.60
2023-03-07T17:26:35.144Z,5.47
2023-03-07T17:29:05.642Z,8.03
2023-03-07T17:31:32.307Z,6.87
2023-03-07T17:33:59.004Z,6.33
2023-03-07T17:36:25.771Z,10.70
2023-03-07T17:38:52.574Z,6.27
2023-03-07T17:41:19.231Z,8.17
2023-03-07T17:43:48.823Z,6.13
2023-03-07T17:46:15.501Z,5.03
2023-03-07T17:48:42.118Z,7.03
2023-03-07T17:51:12.593Z,7.27
2023-03-07T17:53:39.333Z,8.07
2023-03-07T17:56:11.079Z,8.10
2023-03-07T17:58:40.688Z,6.40
2023-03-07T18:01:08.453Z,5.27
2023-03-07T18:03:35.251Z,8.50
2023-03-07T18:06:01.975Z,5.07
2023-03-07T18:08:29.330Z,8.37
2023-03-07T18:11:05.961Z,7.77
2023-03-07T18:13:32.893Z,6.50
2023-03-07T18:15:59.767Z,8.53
2023-03-07T18:18:26.700Z,7.60
2023-03-07T18:20:57.844Z,7.27
2023-03-07T18:23:24.712Z,7.17
2023-03-07T18:26:19.883Z,6.17
2023-03-07T18:28:48.024Z,5.87
2023-03-07T18:31:21.525Z,5.73
2023-03-07T18:33:53.053Z,6.93
2023-03-07T18:36:22.313Z,8.50
2023-03-07T18:38:49.877Z,6.37
2023-03-07T18:41:24.362Z,7.30
2023-03-07T18:43:54.981Z,8.27
2023-03-07T18:46:23.213Z,6.87
2023-03-07T18:48:50.879Z,7.37
2023-03-07T18:51:23.677Z,6.87
2023-03-07T18:53:51.195Z,7.10
2023-03-07T18:56:18.290Z,6.97
2023-03-07T18:58:45.962Z,7.83
2023-03-07T19:01:17.026Z,7.20
2023-03-07T19:03:45.278Z,7.80
2023-03-07T19:06:13.013Z,8.33
2023-03-07T19:08:40.318Z,7.57
2023-03-07T19:11:09.887Z,8.23
2023-03-07T19:13:38.565Z,7.80
2023-03-07T19:16:11.586Z,7.60
2023-03-07T19:18:38.564Z,10.20
2023-03-07T19:21:10.164Z,9.10
2023-03-07T19:23:37.495Z,6.47
2023-03-07T19:26:06.338Z,7.07
2023-03-07T19:28:33.850Z,9.47
2023-03-07T19:31:14.055Z,5.90
2023-03-07T19:33:42.733Z,7.23
2023-03-07T19:36:14.991Z,7.70
2023-03-07T19:38:42.628Z,6.40
2023-03-07T19:41:14.440Z,6.47
2023-03-07T19:43:41.949Z,7.87
2023-03-07T19:46:10.673Z,8.60
2023-03-07T19:48:40.422Z,5.50
2023-03-07T19:51:19.301Z,7.40
2023-03-07T19:53:46.599Z,8.67
2023-03-07T19:56:20.538Z,9.40
2023-03-07T19:58:47.256Z,6.10
2023-03-07T20:01:17.181Z,5.93
2023-03-07T20:03:44.480Z,6.17
2023-03-07T20:06:20.396Z,8.90
2023-03-07T20:08:48.697Z,5.83
2023-03-07T20:11:16.441Z,6.37
2023-03-07T20:13:48.127Z,6.13
2023-03-07T20:16:17.676Z,6.57
2023-03-07T20:18:48.198Z,4.57
2023-03-07T20:21:17.298Z,10.77
2023-03-07T20:23:48.525Z,6.50
2023-03-07T20:26:37.110Z,7.00
2023-03-07T20:29:05.675Z,6.83
2023-03-07T20:31:32.513Z,7.67
2023-03-07T20:34:00.384Z,7.73
2023-03-07T20:36:32.171Z,11.87
2023-03-07T20:39:01.518Z,8.63
2023-03-07T20:41:30.770Z,6.27
2023-03-07T20:44:03.666Z,7.97
2023-03-07T20:46:31.204Z,5.67
2023-03-07T20:49:00.117Z,7.60
2023-03-07T20:51:29.615Z,5.87
2023-03-07T20:53:59.269Z,10.87
2023-03-07T20:56:27.857Z,6.97
2023-03-07T20:58:55.465Z,7.07
2023-03-07T21:01:23.194Z,6.13
2023-03-07T21:03:50.891Z,6.57
2023-03-07T21:06:18.208Z,7.30
2023-03-07T21:08:47.363Z,5.60
2023-03-07T21:11:19.922Z,6.03
2023-03-07T21:13:48.559Z,7.53
2023-03-07T21:16:20.966Z,7.20
2023-03-07T21:18:48.102Z,7.07
2023-03-07T21:21:17.636Z,5.67
2023-03-07T21:23:44.545Z,5.83
2023-03-07T21:26:14.166Z,6.13
2023-03-07T21:28:41.173Z,7.40
2023-03-07T21:31:13.829Z,3.60
2023-03-07T21:33:42.539Z,7.50
2023-03-07T21:36:10.824Z,6.80
2023-03-07T21:38:39.868Z,4.23
2023-03-07T21:41:07.744Z,5.33
2023-03-07T21:43:34.796Z,7.57
2023-03-07T21:46:10.277Z,6.10
2023-03-07T21:48:37.059Z,6.33
2023-03-07T21:51:04.767Z,6.33
2023-03-07T21:53:32.151Z,4.77
2023-03-07T21:56:01.533Z,5.50
2023-03-07T21:58:30.035Z,9.60
2023-03-07T22:00:57.512Z,7.73
2023-03-07T22:03:29.077Z,7.83
2023-03-07T22:05:57.395Z,5.27
2023-03-07T22:08:24.316Z,6.40
2023-03-07T22:11:00.218Z,7.00
2023-03-07T22:13:28.054Z,6.50
2023-03-07T22:15:58.505Z,7.60
2023-03-07T22:18:26.943Z,6.23
2023-03-07T22:20:57.094Z,5.00
2023-03-07T22:23:26.499Z,6.73
2023-03-07T22:25:53.480Z,6.13
2023-03-07T22:28:20.522Z,6.93
2023-03-07T22:30:49.294Z,7.37
2023-03-07T22:33:16.624Z,7.03
2023-03-07T22:35:43.723Z,9.67
2023-03-07T22:38:10.425Z,7.67
2023-03-07T22:40:41.650Z,5.67
2023-03-07T22:43:08.306Z,5.23
2023-03-07T22:45:34.967Z,4.90
2023-03-07T22:48:01.817Z,6.73
2023-03-07T22:50:28.866Z,5.43
2023-03-07T22:52:55.514Z,5.93
2023-03-07T22:55:22.391Z,5.83
2023-03-07T22:57:49.066Z,6.77
2023-03-07T23:00:15.943Z,6.17
2023-03-07T23:02:43.004Z,8.60
2023-03-07T23:05:10.052Z,7.47
2023-03-07T23:07:36.743Z,7.43
2023-03-07T23:10:03.688Z,7.50
2023-03-07T23:12:33.117Z,8.37
2023-03-07T23:14:59.999Z,9.03
2023-03-07T23:17:26.666Z,8.57
2023-03-07T23:19:53.342Z,7.10
2023-03-07T23:22:24.498Z,4.93
2023-03-07T23:24:51.138Z,7.77
2023-03-07T23:27:17.908Z,7.93
2023-03-07T23:29:44.548Z,6.87
2023-03-07T23:32:11.219Z,6.10
2023-03-07T23:34:37.897Z,5.83
2023-03-07T23:37:04.542Z,8.73
2023-03-07T23:39:31.195Z,7.60
2023-03-07T23:41:58.012Z,6.20
2023-03-07T23:44:24.786Z,7.20
2023-03-07T23:46:53.751Z,8.23
2023-03-07T23:49:20.833Z,6.50
2023-03-07T23:51:47.499Z,6.23
2023-03-07T23:54:14.628Z,8.40
2023-03-07T23:56:41.309Z,8.37
2023-03-07T23:59:07.967Z,7.33
